createdAt,value
2022-09-12T00:01:38.956Z,8.13
2022-09-12T00:04:05.787Z,11.02
2022-09-12T00:06:35.448Z,13.55
2022-09-12T00:09:06.206Z,10.00
2022-09-12T00:11:36.782Z,11.82
2022-09-12T00:14:05.083Z,12.93
2022-09-12T00:16:34.330Z,10.70
2022-09-12T00:19:01.794Z,13.00
2022-09-12T00:21:29.173Z,13.15
2022-09-12T00:23:56.099Z,13.80
2022-09-12T00:26:23.157Z,14.27
2022-09-12T00:28:50.081Z,11.90
2022-09-12T00:31:20.301Z,12.55
2022-09-12T00:33:47.589Z,10.63
2022-09-12T00:36:18.224Z,12.82
2022-09-12T00:38:46.254Z,11.88
2022-09-12T00:41:27.208Z,9.38
2022-09-12T00:43:56.787Z,9.48
2022-09-12T00:46:41.070Z,12.40
2022-09-12T00:49:42.928Z,11.75
2022-09-12T00:52:27.856Z,13.85
2022-09-12T00:55:09.173Z,12.77
2022-09-12T00:57:49.727Z,13.13
2022-09-12T01:00:20.496Z,11.18
2022-09-12T01:02:51.540Z,14.65
2022-09-12T01:05:18.578Z,10.27
2022-09-12T01:07:48.638Z,11.27
2022-09-12T01:10:15.991Z,13.73
2022-09-12T01:12:44.244Z,15.13
2022-09-12T01:15:11.769Z,13.85
2022-09-12T01:17:56.394Z,13.75
2022-09-12T01:20:58.006Z,13.18
2022-09-12T01:26:27.788Z,13.63
2022-09-12T01:29:16.295Z,14.40
2022-09-12T01:31:53.466Z,14.68
2022-09-12T01:34:29.252Z,14.90
2022-09-12T01:37:15.559Z,15.75
2022-09-12T01:40:03.502Z,11.00
2022-09-12T01:42:54.692Z,16.17
2022-09-12T01:45:21.387Z,13.52
2022-09-12T01:48:13.097Z,13.55
2022-09-12T01:51:03.255Z,18.00
2022-09-12T01:53:36.776Z,11.27
2022-09-12T01:56:26.638Z,12.18
2022-09-12T01:59:01.582Z,13.97
2022-09-12T02:01:33.986Z,15.68
2022-09-12T02:04:21.693Z,15.50
2022-09-12T02:07:19.399Z,15.07
2022-09-12T02:09:52.150Z,15.73
2022-09-12T02:12:24.836Z,14.70
2022-09-12T02:15:01.950Z,16.70
2022-09-12T02:17:30.800Z,15.55
2022-09-12T02:20:05.771Z,17.10
2022-09-12T02:22:37.215Z,17.65
2022-09-12T02:25:07.223Z,16.27
2022-09-12T02:27:37.775Z,14.18
2022-09-12T02:30:06.901Z,13.95
2022-09-12T02:33:12.004Z,16.92
2022-09-12T02:35:51.025Z,14.45
2022-09-12T02:38:46.430Z,16.63
2022-09-12T02:41:19.656Z,16.00
2022-09-12T02:43:48.861Z,14.20
2022-09-12T02:46:23.414Z,16.60
2022-09-12T02:48:50.395Z,15.90
2022-09-12T02:51:22.898Z,14.75
2022-09-12T02:53:50.966Z,15.85
2022-09-12T02:56:24.862Z,15.07
2022-09-12T02:58:52.639Z,13.98
2022-09-12T03:01:58.127Z,15.48
2022-09-12T03:04:45.546Z,14.73
2022-09-12T03:07:15.101Z,15.77
2022-09-12T03:09:58.969Z,15.70
2022-09-12T03:12:28.560Z,12.52
2022-09-12T03:15:10.924Z,12.85
2022-09-12T03:18:08.442Z,17.40
2022-09-12T03:20:56.698Z,15.90
2022-09-12T03:23:33.124Z,15.50
2022-09-12T03:26:06.699Z,15.15
2022-09-12T03:28:35.687Z,15.40
2022-09-12T03:31:16.323Z,13.30
2022-09-12T03:33:43.353Z,16.10
2022-09-12T03:36:23.975Z,16.95
2022-09-12T03:38:51.363Z,18.63
2022-09-12T03:41:18.387Z,17.05
2022-09-12T03:43:45.812Z,16.10
2022-09-12T03:46:13.587Z,20.05
2022-09-12T03:48:41.173Z,17.13
2022-09-12T03:51:10.296Z,17.90
2022-09-12T03:53:37.204Z,16.52
2022-09-12T03:56:11.856Z,17.60
2022-09-12T03:58:39.433Z,16.92
2022-09-12T04:01:17.404Z,17.65
2022-09-12T04:03:45.844Z,15.90
2022-09-12T04:06:14.860Z,15.67
2022-09-12T04:08:42.830Z,17.10
2022-09-12T04:11:13.491Z,18.55
2022-09-12T04:13:42.388Z,15.90
2022-09-12T04:16:09.959Z,18.38
2022-09-12T04:18:37.156Z,15.13
2022-09-12T04:21:08.725Z,17.15
2022-09-12T04:23:35.567Z,16.52
2022-09-12T04:26:06.472Z,17.70
2022-09-12T04:28:35.081Z,16.58
2022-09-12T04:31:07.505Z,15.65
2022-09-12T04:33:35.392Z,13.27
2022-09-12T04:36:11.284Z,17.42
2022-09-12T04:38:39.031Z,15.57
2022-09-12T04:41:16.231Z,18.20
2022-09-12T04:43:43.998Z,23.52
2022-09-12T04:46:12.703Z,17.13
2022-09-12T04:48:39.567Z,20.65
2022-09-12T04:51:08.493Z,16.65
2022-09-12T04:53:36.652Z,14.95
2022-09-12T04:56:04.940Z,15.85
2022-09-12T04:58:33.160Z,18.88
2022-09-12T05:01:11.482Z,20.15
2022-09-12T05:03:39.635Z,13.88
2022-09-12T05:06:08.059Z,16.33
2022-09-12T05:08:35.557Z,16.07
2022-09-12T05:11:05.082Z,13.60
2022-09-12T05:13:32.960Z,18.75
2022-09-12T05:16:01.829Z,16.02
2022-09-12T05:18:31.084Z,14.52
2022-09-12T05:21:04.442Z,19.73
2022-09-12T05:23:31.412Z,18.17
2022-09-12T05:26:00.188Z,16.13
2022-09-12T05:28:33.680Z,13.00
2022-09-12T05:31:25.134Z,16.15
2022-09-12T05:33:53.708Z,13.25
2022-09-12T05:36:25.414Z,16.38
2022-09-12T05:38:52.555Z,15.88
2022-09-12T05:41:25.196Z,13.77
2022-09-12T05:44:01.017Z,19.60
2022-09-12T05:46:35.623Z,19.63
2022-09-12T05:49:07.033Z,15.10
2022-09-12T05:51:38.126Z,20.77
2022-09-12T05:54:07.598Z,18.40
2022-09-12T05:56:38.963Z,14.68
2022-09-12T05:59:10.570Z,19.02
2022-09-12T06:01:37.561Z,22.38
2022-09-12T06:04:06.508Z,21.48
2022-09-12T06:06:37.703Z,22.27
2022-09-12T06:09:05.994Z,16.90
2022-09-12T06:11:34.440Z,15.48
2022-09-12T06:14:01.852Z,17.90
2022-09-12T06:16:31.388Z,16.40
2022-09-12T06:19:01.019Z,20.23
2022-09-12T06:21:30.737Z,16.63
2022-09-12T06:24:01.176Z,16.08
2022-09-12T06:26:29.275Z,18.30
2022-09-12T06:28:57.125Z,17.27
2022-09-12T06:31:30.104Z,14.20
2022-09-12T06:33:59.707Z,21.73
2022-09-12T06:36:29.504Z,17.50
2022-09-12T06:39:01.967Z,16.33
2022-09-12T06:41:29.972Z,22.20
2022-09-12T06:43:57.467Z,18.70
2022-09-12T06:46:25.176Z,18.27
2022-09-12T06:48:52.051Z,18.90
2022-09-12T06:51:20.269Z,21.92
2022-09-12T06:53:48.593Z,18.60
2022-09-12T06:56:22.947Z,14.70
2022-09-12T06:58:51.356Z,19.50
2022-09-12T07:01:23.863Z,17.07
2022-09-12T07:04:03.065Z,18.20
2022-09-12T07:06:35.585Z,22.40
2022-09-12T07:09:04.519Z,21.30
2022-09-12T07:11:33.859Z,21.30
2022-09-12T07:16:29.220Z,17.05
2022-09-12T07:19:00.059Z,19.23
2022-09-12T07:21:28.307Z,17.55
2022-09-12T07:23:58.180Z,17.48
2022-09-12T07:26:28.942Z,13.63
2022-09-12T07:29:12.784Z,14.27
2022-09-12T07:31:44.911Z,19.38
2022-09-12T07:34:12.008Z,18.35
2022-09-12T07:36:39.462Z,13.38
2022-09-12T07:39:06.402Z,19.55
2022-09-12T07:41:36.011Z,12.43
2022-09-12T07:44:03.491Z,17.25
2022-09-12T07:46:31.461Z,13.68
2022-09-12T07:48:59.761Z,17.75
2022-09-12T07:51:28.569Z,12.85
2022-09-12T07:53:56.564Z,12.40
2022-09-12T07:56:29.486Z,17.73
2022-09-12T07:58:57.564Z,14.00
2022-09-12T08:01:24.795Z,18.05
2022-09-12T08:03:58.070Z,16.77
2022-09-12T08:06:26.528Z,15.15
2022-09-12T08:08:55.793Z,11.80
2022-09-12T08:13:55.288Z,15.40
2022-09-12T08:16:27.101Z,16.73
2022-09-12T08:18:54.157Z,15.10
2022-09-12T08:21:27.159Z,15.77
2022-09-12T08:23:56.580Z,16.90
2022-09-12T08:26:23.569Z,15.75
2022-09-12T08:28:51.220Z,17.63
2022-09-12T08:31:20.084Z,14.57
2022-09-12T08:33:47.112Z,14.18
2022-09-12T08:36:22.634Z,14.30
2022-09-12T08:38:53.646Z,14.60
2022-09-12T08:41:35.122Z,10.88
2022-09-12T08:44:13.980Z,11.95
2022-09-12T08:46:52.702Z,12.88
2022-09-12T08:49:33.694Z,13.93
2022-09-12T08:52:16.820Z,17.33
2022-09-12T08:54:45.532Z,12.98
2022-09-12T08:57:14.278Z,14.90
2022-09-12T08:59:45.863Z,15.13
2022-09-12T09:02:38.862Z,10.80
2022-09-12T09:05:30.580Z,19.00
2022-09-12T09:08:34.267Z,15.38
2022-09-12T09:11:52.126Z,19.13
2022-09-12T09:14:57.667Z,19.05
2022-09-12T09:17:30.351Z,11.20
2022-09-12T09:20:13.293Z,18.50
2022-09-12T09:22:51.026Z,21.17
2022-09-12T09:25:23.412Z,15.85
2022-09-12T09:27:53.229Z,22.25
2022-09-12T09:30:21.686Z,22.05
2022-09-12T09:32:54.844Z,23.55
2022-09-12T09:35:44.210Z,24.15
2022-09-12T09:38:38.403Z,22.70
2022-09-12T09:41:25.268Z,20.88
2022-09-12T09:43:52.177Z,22.75
2022-09-12T09:46:19.102Z,24.02
2022-09-12T09:48:50.273Z,20.92
2022-09-12T09:51:21.414Z,23.55
2022-09-12T09:53:58.302Z,18.00
2022-09-12T09:56:36.833Z,18.15
2022-09-12T09:59:25.579Z,17.95
2022-09-12T10:01:53.774Z,17.90
2022-09-12T10:04:30.063Z,21.35
2022-09-12T10:06:59.461Z,22.30
2022-09-12T10:09:34.913Z,22.13
2022-09-12T10:12:21.183Z,18.35
2022-09-12T10:15:14.146Z,18.95
2022-09-12T10:17:44.659Z,20.85
2022-09-12T10:20:45.066Z,20.30
2022-09-12T10:23:36.017Z,20.15
2022-09-12T10:26:10.237Z,19.35
2022-09-12T10:28:51.350Z,19.13
2022-09-12T10:31:29.685Z,18.10
2022-09-12T10:33:59.795Z,19.42
2022-09-12T10:36:39.282Z,17.40
2022-09-12T10:39:07.046Z,18.20
2022-09-12T10:41:41.627Z,15.63
2022-09-12T10:44:17.766Z,17.45
2022-09-12T10:46:45.351Z,16.77
2022-09-12T10:49:18.075Z,16.30
2022-09-12T10:51:44.971Z,18.33
2022-09-12T10:54:13.202Z,15.60
2022-09-12T10:56:45.062Z,14.97
2022-09-12T10:59:43.127Z,17.23
2022-09-12T11:02:19.211Z,16.52
2022-09-12T11:05:18.396Z,17.05
2022-09-12T11:08:25.027Z,16.75
2022-09-12T11:10:58.065Z,17.13
2022-09-12T11:13:42.975Z,14.63
2022-09-12T11:16:34.507Z,16.55
2022-09-12T11:19:39.411Z,16.23
2022-09-12T11:22:31.515Z,13.75
2022-09-12T11:25:20.123Z,13.85
2022-09-12T11:28:07.729Z,15.38
2022-09-12T11:30:55.468Z,14.98
2022-09-12T11:33:42.664Z,14.82
2022-09-12T11:36:32.818Z,13.77
2022-09-12T11:39:13.299Z,14.73
2022-09-12T11:41:50.801Z,15.23
2022-09-12T11:44:28.700Z,12.27
2022-09-12T11:46:55.603Z,12.18
2022-09-12T11:49:47.181Z,12.43
2022-09-12T11:52:15.336Z,11.88
2022-09-12T11:54:53.829Z,12.35
2022-09-12T11:57:45.744Z,12.90
2022-09-12T12:00:24.474Z,10.82
2022-09-12T12:03:06.699Z,9.50
2022-09-12T12:06:10.896Z,7.32
2022-09-12T12:08:40.376Z,8.43
2022-09-12T12:11:10.933Z,8.40
2022-09-12T12:13:44.631Z,8.00
2022-09-12T12:16:27.110Z,8.63
2022-09-12T12:19:00.260Z,8.10
2022-09-12T12:21:54.529Z,9.07
2022-09-12T12:24:24.934Z,10.20
2022-09-12T12:27:44.050Z,8.82
2022-09-12T12:30:55.811Z,8.27
2022-09-12T12:36:01.727Z,9.05
2022-09-12T12:38:32.939Z,8.27
2022-09-12T12:41:23.628Z,7.88
2022-09-12T12:43:56.465Z,7.63
2022-09-12T12:46:28.646Z,6.90
2022-09-12T12:49:01.490Z,6.93
2022-09-12T12:51:40.154Z,7.05
2022-09-12T12:54:53.227Z,7.47
2022-09-12T12:57:23.632Z,6.43
2022-09-12T13:00:15.617Z,5.50
2022-09-12T13:02:55.958Z,6.13
2022-09-12T13:05:25.216Z,6.35
2022-09-12T13:07:59.601Z,5.60
2022-09-12T13:10:29.516Z,5.30
2022-09-12T13:13:01.335Z,5.20
2022-09-12T13:15:37.944Z,5.70
2022-09-12T13:18:14.820Z,4.93
2022-09-12T13:20:55.672Z,5.35
2022-09-12T13:23:24.522Z,5.55
2022-09-12T13:26:01.863Z,5.57
2022-09-12T13:28:30.294Z,5.88
2022-09-12T13:31:10.711Z,5.30
2022-09-12T13:33:43.193Z,6.07
2022-09-12T13:36:23.023Z,6.30
2022-09-12T13:39:20.000Z,4.65
2022-09-12T13:41:49.745Z,5.07
2022-09-12T13:44:19.228Z,5.13
2022-09-12T13:46:46.429Z,6.03
2022-09-12T13:49:26.872Z,5.28
2022-09-12T13:52:25.233Z,5.10
2022-09-12T13:54:58.826Z,4.95
2022-09-12T13:57:32.511Z,4.78
2022-09-12T14:00:05.217Z,4.40
2022-09-12T14:02:36.121Z,5.38
2022-09-12T14:05:13.582Z,4.15
2022-09-12T14:07:53.306Z,4.03
2022-09-12T14:10:28.143Z,3.92
2022-09-12T14:12:56.601Z,4.47
2022-09-12T14:15:32.799Z,3.95
2022-09-12T14:18:02.011Z,4.03
2022-09-12T14:20:32.506Z,4.45
2022-09-12T14:23:16.163Z,4.13
2022-09-12T14:25:47.904Z,4.53
2022-09-12T14:28:23.168Z,4.03
2022-09-12T14:31:07.121Z,4.75
2022-09-12T14:33:50.842Z,4.50
2022-09-12T14:36:23.573Z,4.20
2022-09-12T14:38:55.377Z,4.13
2022-09-12T14:41:26.123Z,3.90
2022-09-12T14:43:57.881Z,3.15
2022-09-12T14:46:33.119Z,3.47
2022-09-12T14:49:08.008Z,3.92
2022-09-12T14:51:40.424Z,3.53
2022-09-12T14:54:27.187Z,3.30
2022-09-12T14:57:06.288Z,3.10
2022-09-12T14:59:36.243Z,3.33
2022-09-12T15:02:23.251Z,3.25
2022-09-12T15:04:51.470Z,3.08
2022-09-12T15:07:35.363Z,3.20
2022-09-12T15:10:25.349Z,3.25
2022-09-12T15:13:10.974Z,3.60
2022-09-12T15:15:39.508Z,3.13
2022-09-12T15:18:07.148Z,3.30
2022-09-12T15:20:37.389Z,3.33
2022-09-12T15:23:06.461Z,3.45
2022-09-12T15:25:33.298Z,3.42
2022-09-12T15:28:00.945Z,3.72
2022-09-12T15:30:27.837Z,3.53
2022-09-12T15:32:54.986Z,3.40
2022-09-12T15:35:25.712Z,3.25
2022-09-12T15:37:52.580Z,3.25
2022-09-12T15:40:19.516Z,3.40
2022-09-12T15:42:46.375Z,3.95
2022-09-12T15:45:23.161Z,3.75
2022-09-12T15:47:50.057Z,3.40
2022-09-12T15:50:16.876Z,3.90
2022-09-12T15:52:44.457Z,3.25
2022-09-12T15:55:21.945Z,3.53
2022-09-12T15:57:49.578Z,3.65
2022-09-12T16:00:18.401Z,3.42
2022-09-12T16:02:51.161Z,3.50
2022-09-12T16:05:21.363Z,3.67
2022-09-12T16:07:50.951Z,3.55
2022-09-12T16:10:21.175Z,3.10
2022-09-12T16:12:48.197Z,3.75
2022-09-12T16:15:19.056Z,3.97
2022-09-12T16:17:46.306Z,3.50
2022-09-12T16:20:14.058Z,3.95
2022-09-12T16:22:41.272Z,3.13
2022-09-12T16:25:08.533Z,3.92
2022-09-12T16:27:36.403Z,3.85
2022-09-12T16:30:05.049Z,3.15
2022-09-12T16:34:58.894Z,3.17
2022-09-12T16:37:25.764Z,3.40
2022-09-12T16:39:52.606Z,3.75
2022-09-12T16:42:19.503Z,3.70
2022-09-12T16:44:47.079Z,3.88
2022-09-12T16:47:14.927Z,3.58
2022-09-12T16:49:41.753Z,3.10
2022-09-12T16:52:09.000Z,3.70
2022-09-12T16:54:36.201Z,3.58
2022-09-12T16:57:05.298Z,4.10
2022-09-12T16:59:32.681Z,3.72
2022-09-12T17:01:59.775Z,3.45
2022-09-12T17:04:26.603Z,3.55
2022-09-12T17:06:53.536Z,3.55
2022-09-12T17:09:21.558Z,3.63
2022-09-12T17:11:49.659Z,3.97
2022-09-12T17:14:16.788Z,3.92
2022-09-12T17:16:50.807Z,3.90
2022-09-12T17:19:28.110Z,4.38
2022-09-12T17:21:55.850Z,3.80
2022-09-12T17:24:23.392Z,4.47
2022-09-12T17:26:51.119Z,4.00
2022-09-12T17:29:18.108Z,3.88
2022-09-12T17:31:45.540Z,3.80
2022-09-12T17:34:17.673Z,4.03
2022-09-12T17:36:45.416Z,5.38
2022-09-12T17:39:13.585Z,5.55
2022-09-12T17:41:42.617Z,5.78
2022-09-12T17:44:12.532Z,5.45
2022-09-12T17:46:40.266Z,5.32
2022-09-12T17:49:11.598Z,8.50
2022-09-12T17:51:39.483Z,5.65
2022-09-12T17:54:10.253Z,7.78
2022-09-12T17:56:38.565Z,5.45
2022-09-12T17:59:07.183Z,6.82
2022-09-12T18:01:53.135Z,6.50
2022-09-12T18:04:20.273Z,7.07
2022-09-12T18:06:50.174Z,6.20
2022-09-12T18:09:20.035Z,6.07
2022-09-12T18:11:48.155Z,6.70
2022-09-12T18:14:15.806Z,6.93
2022-09-12T18:16:43.455Z,7.03
2022-09-12T18:19:11.204Z,6.57
2022-09-12T18:21:38.358Z,6.57
2022-09-12T18:24:05.906Z,8.40
2022-09-12T18:26:33.328Z,6.63
2022-09-12T18:29:00.322Z,7.32
2022-09-12T18:31:30.034Z,6.57
2022-09-12T18:33:59.843Z,7.32
2022-09-12T18:36:27.628Z,7.43
2022-09-12T18:38:55.360Z,8.90
2022-09-12T18:41:24.004Z,11.48
2022-09-12T18:43:56.147Z,15.13
2022-09-12T18:46:23.817Z,16.20
2022-09-12T18:48:51.366Z,18.55
2022-09-12T18:51:23.125Z,19.48
2022-09-12T18:53:52.975Z,15.68
2022-09-12T18:56:21.713Z,18.02
2022-09-12T18:58:54.498Z,18.17
2022-09-12T19:01:24.396Z,20.65
2022-09-12T19:03:52.284Z,18.20
2022-09-12T19:06:24.742Z,16.98
2022-09-12T19:08:53.299Z,17.45
2022-09-12T19:11:21.093Z,17.65
2022-09-12T19:13:50.255Z,13.98
2022-09-12T19:16:23.408Z,15.35
2022-09-12T19:18:52.439Z,15.20
2022-09-12T19:23:52.949Z,14.27
2022-09-12T19:26:21.203Z,16.38
2022-09-12T19:28:48.930Z,15.13
2022-09-12T19:31:18.964Z,13.13
2022-09-12T19:33:46.761Z,12.45
2022-09-12T19:36:40.846Z,12.05
2022-09-12T19:39:04.076Z,9.50
2022-09-12T19:41:31.056Z,10.95
2022-09-12T19:43:58.045Z,9.35
2022-09-12T19:46:26.415Z,10.23
2022-09-12T19:48:53.490Z,8.23
2022-09-12T19:51:22.144Z,8.50
2022-09-12T19:53:50.364Z,8.35
2022-09-12T19:56:20.875Z,8.80
2022-09-12T19:58:55.028Z,8.48
2022-09-12T20:01:25.131Z,8.20
2022-09-12T20:03:54.847Z,8.23
2022-09-12T20:06:21.913Z,8.65
2022-09-12T20:08:49.330Z,8.15
2022-09-12T20:11:18.456Z,8.77
2022-09-12T20:16:22.627Z,9.13
2022-09-12T20:18:54.682Z,9.25
2022-09-12T20:21:25.482Z,8.98
2022-09-12T20:23:52.700Z,9.05
2022-09-12T20:26:20.405Z,9.60
2022-09-12T20:28:47.600Z,8.98
2022-09-12T20:31:15.753Z,8.90
2022-09-12T20:33:42.993Z,8.97
2022-09-12T20:36:12.524Z,9.55
2022-09-12T20:38:39.988Z,8.80
2022-09-12T20:41:09.850Z,8.50
2022-09-12T20:43:38.593Z,9.13
2022-09-12T20:46:10.311Z,9.25
2022-09-12T20:48:38.811Z,9.35
2022-09-12T20:51:06.783Z,9.05
2022-09-12T20:53:35.253Z,9.02
2022-09-12T20:56:03.802Z,9.00
2022-09-12T20:58:30.821Z,8.90
2022-09-12T21:00:57.649Z,9.30
2022-09-12T21:03:25.535Z,8.27
2022-09-12T21:05:52.689Z,9.93
2022-09-12T21:08:19.548Z,9.77
2022-09-12T21:10:46.374Z,7.85
2022-09-12T21:13:13.947Z,9.63
2022-09-12T21:15:41.661Z,9.30
2022-09-12T21:18:08.828Z,9.68
2022-09-12T21:20:35.891Z,10.02
2022-09-12T21:23:02.998Z,9.38
2022-09-12T21:25:30.222Z,7.68
2022-09-12T21:27:57.145Z,9.88
2022-09-12T21:30:24.028Z,9.18
2022-09-12T21:32:50.860Z,7.97
2022-09-12T21:35:17.742Z,9.38
2022-09-12T21:37:44.568Z,8.60
2022-09-12T21:40:11.522Z,9.23
2022-09-12T21:42:38.463Z,8.70
2022-09-12T21:45:06.246Z,8.60
2022-09-12T21:47:33.066Z,9.27
2022-09-12T21:50:00.042Z,8.60
2022-09-12T21:52:27.558Z,8.40
2022-09-12T21:54:54.436Z,9.48
2022-09-12T21:57:21.417Z,9.80
2022-09-12T21:59:48.192Z,10.90
2022-09-12T22:02:16.112Z,8.13
2022-09-12T22:04:43.016Z,7.47
2022-09-12T22:07:09.954Z,7.28
2022-09-12T22:09:36.783Z,7.25
2022-09-12T22:12:03.765Z,8.60
2022-09-12T22:14:30.595Z,10.23
2022-09-12T22:16:57.564Z,10.50
2022-09-12T22:19:24.488Z,10.35
2022-09-12T22:22:09.815Z,9.95
2022-09-12T22:24:36.950Z,11.02
2022-09-12T22:27:05.739Z,10.43
2022-09-12T22:29:33.412Z,11.23
2022-09-12T22:32:00.863Z,11.15
2022-09-12T22:34:28.775Z,9.98
2022-09-12T22:36:55.711Z,8.80
2022-09-12T22:39:22.703Z,12.02
2022-09-12T22:41:50.104Z,10.85
2022-09-12T22:44:17.833Z,8.10
2022-09-12T22:46:45.171Z,10.75
2022-09-12T22:49:12.783Z,9.52
2022-09-12T22:51:39.804Z,12.10
2022-09-12T22:54:07.441Z,11.60
2022-09-12T22:56:35.013Z,11.60
2022-09-12T22:59:01.980Z,12.43
2022-09-12T23:01:28.943Z,12.63
2022-09-12T23:03:55.768Z,11.93
2022-09-12T23:06:22.514Z,12.73
2022-09-12T23:08:49.295Z,12.80
2022-09-12T23:11:19.065Z,13.55
2022-09-12T23:13:47.660Z,14.05
2022-09-12T23:16:20.507Z,13.93
2022-09-12T23:18:48.042Z,13.85
2022-09-12T23:21:16.884Z,13.70
2022-09-12T23:23:43.984Z,13.75
2022-09-12T23:26:17.268Z,14.40
2022-09-12T23:28:55.486Z,15.02
2022-09-12T23:31:24.442Z,14.77
2022-09-12T23:33:55.566Z,15.32
2022-09-12T23:36:23.488Z,16.13
2022-09-12T23:38:50.391Z,10.25
2022-09-12T23:41:18.364Z,12.23
2022-09-12T23:43:45.985Z,10.90
2022-09-12T23:46:14.273Z,10.98
2022-09-12T23:48:41.935Z,15.27
2022-09-12T23:51:09.328Z,9.95
2022-09-12T23:53:36.221Z,11.07
2022-09-12T23:56:04.346Z,10.18
2022-09-12T23:58:31.286Z,11.02
